createdAt,value
2023-05-10T00:00:18.012Z,100.00
2023-05-10T00:02:44.502Z,100.00
2023-05-10T00:05:10.851Z,100.00
2023-05-10T00:07:37.078Z,100.00
2023-05-10T00:10:03.360Z,100.00
2023-05-10T00:12:29.650Z,100.00
2023-05-10T00:14:55.902Z,100.00
2023-05-10T00:17:22.142Z,100.00
2023-05-10T00:19:48.369Z,100.00
2023-05-10T00:22:14.622Z,100.00
2023-05-10T00:24:40.937Z,100.00
2023-05-10T00:27:07.190Z,100.00
2023-05-10T00:29:33.432Z,100.00
2023-05-10T00:31:59.710Z,100.00
2023-05-10T00:34:25.984Z,100.00
2023-05-10T00:36:52.245Z,100.00
2023-05-10T00:39:18.476Z,100.00
2023-05-10T00:41:44.706Z,100.00
2023-05-10T00:44:10.959Z,100.00
2023-05-10T00:46:37.217Z,100.00
2023-05-10T00:49:03.486Z,100.00
2023-05-10T00:51:29.715Z,100.00
2023-05-10T00:53:55.957Z,100.00
2023-05-10T00:56:22.208Z,100.00
2023-05-10T00:58:48.465Z,100.00
2023-05-10T01:01:14.783Z,100.00
2023-05-10T01:03:41.117Z,100.00
2023-05-10T01:06:07.343Z,100.00
2023-05-10T01:08:33.641Z,100.00
2023-05-10T01:10:59.924Z,100.00
2023-05-10T01:13:26.331Z,100.00
2023-05-10T01:15:52.750Z,100.00
2023-05-10T01:18:19.052Z,100.00
2023-05-10T01:20:45.313Z,100.00
2023-05-10T01:23:11.588Z,100.00
2023-05-10T01:25:37.865Z,100.00
2023-05-10T01:28:04.108Z,100.00
2023-05-10T01:30:30.367Z,100.00
2023-05-10T01:32:56.674Z,100.00
2023-05-10T01:35:23.024Z,100.00
2023-05-10T01:37:49.284Z,100.00
2023-05-10T01:40:15.805Z,100.00
2023-05-10T01:42:42.243Z,100.00
2023-05-10T01:45:08.484Z,100.00
2023-05-10T01:47:34.764Z,100.00
2023-05-10T01:50:01.032Z,100.00
2023-05-10T01:52:27.283Z,100.00
2023-05-10T01:54:53.518Z,100.00
2023-05-10T01:57:19.778Z,100.00
2023-05-10T01:59:46.013Z,100.00
2023-05-10T02:02:12.304Z,100.00
2023-05-10T02:04:38.593Z,100.00
2023-05-10T02:07:04.835Z,100.00
2023-05-10T02:09:31.055Z,100.00
2023-05-10T02:11:57.302Z,100.00
2023-05-10T02:14:23.562Z,100.00
2023-05-10T02:16:49.845Z,100.00
2023-05-10T02:19:16.128Z,100.00
2023-05-10T02:21:42.362Z,100.00
2023-05-10T02:24:08.588Z,100.00
2023-05-10T02:26:34.909Z,100.00
2023-05-10T02:29:01.137Z,100.00
2023-05-10T02:31:27.444Z,99.27
2023-05-10T02:33:53.729Z,97.50
2023-05-10T02:36:19.970Z,98.44
2023-05-10T02:38:46.242Z,99.53
2023-05-10T02:41:12.488Z,99.78
2023-05-10T02:43:38.735Z,98.02
2023-05-10T02:46:05.060Z,100.00
2023-05-10T02:48:31.388Z,100.00
2023-05-10T02:50:57.650Z,98.40
2023-05-10T02:53:23.878Z,99.20
2023-05-10T02:55:50.137Z,98.74
2023-05-10T02:58:16.374Z,95.04
2023-05-10T03:00:42.641Z,93.68
2023-05-10T03:03:08.992Z,93.66
2023-05-10T03:05:35.281Z,95.94
2023-05-10T03:08:01.542Z,98.19
2023-05-10T03:10:27.779Z,99.58
2023-05-10T03:12:54.028Z,99.91
2023-05-10T03:15:20.369Z,100.00
2023-05-10T03:17:46.666Z,100.00
2023-05-10T03:20:12.964Z,100.00
2023-05-10T03:22:39.204Z,100.00
2023-05-10T03:25:05.512Z,100.00
2023-05-10T03:27:31.742Z,100.00
2023-05-10T03:29:57.990Z,100.00
2023-05-10T03:32:24.284Z,99.77
2023-05-10T03:34:50.580Z,99.21
2023-05-10T03:37:16.823Z,96.46
2023-05-10T03:39:43.072Z,100.00
2023-05-10T03:42:09.321Z,100.00
2023-05-10T03:44:35.611Z,100.00
2023-05-10T03:47:01.913Z,100.00
2023-05-10T03:49:28.252Z,100.00
2023-05-10T03:51:54.493Z,98.11
2023-05-10T03:54:20.728Z,99.76
2023-05-10T03:56:46.970Z,100.00
2023-05-10T03:59:13.227Z,100.00
2023-05-10T04:01:39.469Z,95.29
2023-05-10T04:04:05.776Z,94.20
2023-05-10T04:06:32.124Z,93.92
2023-05-10T04:08:58.399Z,95.21
2023-05-10T04:11:24.677Z,94.52
2023-05-10T04:13:51.015Z,93.72
2023-05-10T04:16:17.285Z,94.22
2023-05-10T04:18:43.629Z,95.18
2023-05-10T04:21:09.869Z,94.92
2023-05-10T04:23:36.104Z,95.37
2023-05-10T04:26:02.345Z,95.03
2023-05-10T04:28:28.647Z,95.46
2023-05-10T04:30:54.972Z,95.62
2023-05-10T04:33:21.212Z,95.70
2023-05-10T04:35:47.467Z,95.08
2023-05-10T04:38:13.699Z,95.40
2023-05-10T04:40:39.954Z,97.58
2023-05-10T04:43:06.283Z,98.97
2023-05-10T04:45:32.511Z,98.90
2023-05-10T04:47:58.789Z,99.92
2023-05-10T04:50:25.114Z,100.00
2023-05-10T04:52:52.706Z,99.07
2023-05-10T04:55:19.520Z,99.35
2023-05-10T04:57:45.757Z,98.37
2023-05-10T05:00:12.024Z,98.61
2023-05-10T05:02:38.360Z,97.54
2023-05-10T05:05:04.709Z,97.10
2023-05-10T05:07:30.961Z,96.76
2023-05-10T05:09:57.225Z,95.37
2023-05-10T05:12:23.518Z,94.95
2023-05-10T05:14:49.745Z,96.58
2023-05-10T05:17:16.458Z,95.01
2023-05-10T05:19:43.304Z,94.38
2023-05-10T05:22:09.597Z,97.49
2023-05-10T05:24:35.836Z,97.01
2023-05-10T05:27:02.072Z,94.19
2023-05-10T05:29:28.325Z,93.04
2023-05-10T05:31:55.616Z,87.83
2023-05-10T05:34:22.054Z,86.49
2023-05-10T05:36:48.285Z,85.62
2023-05-10T05:39:14.514Z,83.71
2023-05-10T05:41:40.788Z,84.73
2023-05-10T05:44:07.043Z,86.26
2023-05-10T05:46:33.287Z,87.60
2023-05-10T05:48:59.535Z,87.90
2023-05-10T05:51:25.794Z,90.06
2023-05-10T05:53:52.040Z,90.78
2023-05-10T05:56:18.308Z,92.76
2023-05-10T05:58:44.562Z,93.93
2023-05-10T06:01:10.822Z,93.66
2023-05-10T06:03:37.195Z,91.75
2023-05-10T06:06:03.605Z,94.81
2023-05-10T06:08:29.840Z,85.91
2023-05-10T06:10:56.228Z,84.50
2023-05-10T06:13:22.536Z,83.12
2023-05-10T06:15:48.832Z,78.30
2023-05-10T06:18:15.121Z,79.18
2023-05-10T06:20:41.397Z,81.55
2023-05-10T06:23:07.814Z,80.25
2023-05-10T06:25:34.071Z,77.56
2023-05-10T06:28:00.331Z,79.70
2023-05-10T06:30:26.660Z,81.03
2023-05-10T06:32:52.964Z,83.47
2023-05-10T06:35:19.447Z,87.68
2023-05-10T06:37:46.016Z,83.99
2023-05-10T06:40:12.515Z,83.27
2023-05-10T06:42:38.979Z,76.42
2023-05-10T06:45:05.298Z,79.74
2023-05-10T06:47:31.583Z,80.95
2023-05-10T06:49:57.854Z,81.69
2023-05-10T06:52:24.105Z,78.44
2023-05-10T06:54:50.507Z,74.04
2023-05-10T06:57:30.672Z,74.12
2023-05-10T06:59:57.866Z,75.72
2023-05-10T07:02:24.269Z,78.65
2023-05-10T07:04:50.700Z,82.69
2023-05-10T07:07:17.106Z,84.96
2023-05-10T07:09:43.474Z,84.17
2023-05-10T07:12:11.599Z,76.40
2023-05-10T07:14:39.217Z,74.88
2023-05-10T07:17:05.608Z,76.00
2023-05-10T07:19:32.096Z,70.82
2023-05-10T07:21:58.418Z,74.40
2023-05-10T07:24:24.950Z,74.80
2023-05-10T07:26:51.339Z,76.37
2023-05-10T07:29:17.875Z,76.35
2023-05-10T07:31:44.273Z,74.75
2023-05-10T07:34:10.691Z,71.86
2023-05-10T07:36:36.938Z,71.44
2023-05-10T07:39:03.200Z,68.36
2023-05-10T07:41:29.461Z,72.99
2023-05-10T07:43:55.703Z,72.09
2023-05-10T07:46:22.060Z,71.96
2023-05-10T07:48:48.398Z,68.88
2023-05-10T07:51:14.637Z,72.72
2023-05-10T07:53:40.887Z,72.09
2023-05-10T07:56:07.208Z,75.18
2023-05-10T07:58:33.508Z,70.22
2023-05-10T08:00:59.758Z,72.86
2023-05-10T08:03:26.131Z,70.64
2023-05-10T08:05:52.480Z,68.76
2023-05-10T08:08:18.889Z,68.79
2023-05-10T08:10:45.168Z,68.62
2023-05-10T08:13:11.496Z,68.34
2023-05-10T08:15:37.785Z,68.67
2023-05-10T08:18:04.047Z,68.57
2023-05-10T08:20:30.395Z,68.60
2023-05-10T08:22:56.636Z,68.24
2023-05-10T08:25:22.950Z,71.52
2023-05-10T08:27:49.347Z,72.94
2023-05-10T08:30:15.627Z,70.50
2023-05-10T08:32:41.916Z,68.08
2023-05-10T08:35:08.251Z,68.01
2023-05-10T08:37:34.517Z,70.23
2023-05-10T08:40:00.797Z,70.13
2023-05-10T08:42:27.075Z,64.90
2023-05-10T08:44:53.326Z,69.33
2023-05-10T08:47:19.649Z,67.08
2023-05-10T08:49:45.935Z,67.05
2023-05-10T08:52:12.187Z,62.42
2023-05-10T08:54:38.509Z,65.94
2023-05-10T08:57:04.876Z,65.59
2023-05-10T08:59:31.197Z,62.70
2023-05-10T09:01:57.560Z,66.88
2023-05-10T09:04:24.000Z,70.38
2023-05-10T09:06:50.417Z,69.85
2023-05-10T09:09:16.678Z,69.77
2023-05-10T09:11:43.008Z,67.84
2023-05-10T09:14:09.351Z,65.26
2023-05-10T09:16:37.292Z,67.31
2023-05-10T09:19:03.672Z,68.36
2023-05-10T09:21:30.016Z,67.04
2023-05-10T09:23:56.282Z,63.11
2023-05-10T09:26:22.700Z,64.23
2023-05-10T09:28:49.035Z,69.28
2023-05-10T09:31:15.339Z,67.79
2023-05-10T09:33:41.629Z,64.35
2023-05-10T09:36:07.905Z,59.71
2023-05-10T09:38:34.124Z,65.28
2023-05-10T09:41:00.390Z,71.75
2023-05-10T09:43:26.642Z,68.72
2023-05-10T09:45:52.957Z,64.12
2023-05-10T09:48:19.231Z,63.80
2023-05-10T09:50:45.465Z,63.74
2023-05-10T09:53:11.703Z,60.68
2023-05-10T09:55:37.944Z,60.65
2023-05-10T09:58:04.199Z,65.33
2023-05-10T10:00:30.432Z,61.37
2023-05-10T10:02:56.734Z,58.83
2023-05-10T10:05:22.994Z,60.90
2023-05-10T10:07:49.239Z,61.11
2023-05-10T10:10:15.468Z,62.06
2023-05-10T10:12:41.768Z,60.02
2023-05-10T10:15:08.061Z,59.89
2023-05-10T10:17:34.303Z,58.13
2023-05-10T10:20:00.606Z,55.71
2023-05-10T10:22:26.841Z,56.26
2023-05-10T10:24:53.145Z,54.62
2023-05-10T10:27:19.370Z,54.73
2023-05-10T10:29:45.767Z,54.72
2023-05-10T10:32:12.080Z,56.98
2023-05-10T10:34:38.321Z,51.93
2023-05-10T10:37:04.608Z,53.56
2023-05-10T10:39:30.894Z,50.83
2023-05-10T10:41:57.152Z,48.72
2023-05-10T10:44:23.491Z,50.06
2023-05-10T10:46:52.056Z,48.51
2023-05-10T10:49:18.316Z,51.83
2023-05-10T10:51:44.602Z,48.04
2023-05-10T10:54:10.902Z,51.25
2023-05-10T10:56:37.272Z,50.12
2023-05-10T10:59:03.568Z,53.79
2023-05-10T11:01:29.861Z,47.91
2023-05-10T11:03:56.214Z,50.02
2023-05-10T11:15:13.431Z,52.15
2023-05-10T11:23:50.221Z,46.31
2023-05-10T11:26:25.082Z,47.97
2023-05-10T11:32:24.407Z,45.98
2023-05-10T11:35:28.227Z,45.72
2023-05-10T15:36:43.995Z,39.80
2023-05-10T15:49:00.427Z,41.08
2023-05-10T15:51:42.869Z,40.17
2023-05-10T16:02:59.704Z,40.29
2023-05-10T16:11:40.287Z,41.21
2023-05-10T16:17:38.445Z,42.99
2023-05-10T16:39:59.838Z,44.14
2023-05-10T17:08:31.062Z,43.82
2023-05-10T17:17:38.432Z,44.36
2023-05-10T17:20:41.939Z,42.71
2023-05-10T17:29:29.998Z,42.68
2023-05-10T17:32:46.876Z,42.99
2023-05-10T17:35:21.748Z,43.07
2023-05-10T17:38:30.432Z,42.98
2023-05-10T17:44:17.567Z,43.53
2023-05-10T17:50:58.343Z,44.69
2023-05-10T17:54:24.423Z,47.04
2023-05-10T17:57:02.305Z,44.72
2023-05-10T17:59:48.819Z,44.54
2023-05-10T18:25:40.790Z,46.34
2023-05-10T19:46:47.447Z,66.96
2023-05-10T19:52:29.522Z,67.09
2023-05-10T21:48:41.413Z,85.55
2023-05-10T21:58:05.756Z,87.15
2023-05-10T22:46:33.820Z,76.10
